createdAt,value
2018-08-11T00:00:05.888Z,17.07
2018-08-11T00:01:05.879Z,17.15
2018-08-11T00:02:05.867Z,17.14
2018-08-11T00:03:05.857Z,17.14
2018-08-11T00:04:05.846Z,17.24
2018-08-11T00:05:05.836Z,17.18
2018-08-11T00:06:05.823Z,17.15
2018-08-11T00:07:05.813Z,17.15
2018-08-11T00:08:05.802Z,17.15
2018-08-11T00:09:05.791Z,17.22
2018-08-11T00:10:05.779Z,17.18
2018-08-11T00:11:05.769Z,17.06
2018-08-11T00:12:05.763Z,17.05
2018-08-11T00:13:05.750Z,17.14
2018-08-11T00:14:05.734Z,17.00
2018-08-11T00:15:05.725Z,17.10
2018-08-11T00:16:05.714Z,17.05
2018-08-11T00:17:05.703Z,17.14
2018-08-11T00:18:05.692Z,17.02
2018-08-11T00:19:05.681Z,17.10
2018-08-11T00:20:05.670Z,17.09
2018-08-11T00:21:05.660Z,17.10
2018-08-11T00:22:05.648Z,16.95
2018-08-11T00:23:05.637Z,16.98
2018-08-11T00:24:05.625Z,16.98
2018-08-11T00:25:05.617Z,16.88
2018-08-11T00:26:05.604Z,16.92
2018-08-11T00:27:05.593Z,16.92
2018-08-11T00:28:05.582Z,16.85
2018-08-11T00:29:05.571Z,16.87
2018-08-11T00:30:05.560Z,16.90
2018-08-11T00:31:05.549Z,16.82
2018-08-11T00:32:05.541Z,16.84
2018-08-11T00:33:05.528Z,16.80
2018-08-11T00:34:05.515Z,16.70
2018-08-11T00:35:05.504Z,16.75
2018-08-11T00:36:05.493Z,16.62
2018-08-11T00:37:05.583Z,16.70
2018-08-11T00:38:05.471Z,16.69
2018-08-11T00:39:05.459Z,16.67
2018-08-11T00:40:05.448Z,16.67
2018-08-11T00:41:05.440Z,16.67
2018-08-11T00:42:05.435Z,16.63
2018-08-11T00:43:05.413Z,16.69
2018-08-11T00:44:05.402Z,16.66
2018-08-11T00:45:05.393Z,16.63
2018-08-11T00:46:05.380Z,16.75
2018-08-11T00:47:05.369Z,16.72
2018-08-11T00:48:05.392Z,16.65
2018-08-11T00:49:05.352Z,16.60
2018-08-11T00:50:05.336Z,16.67
2018-08-11T00:51:05.334Z,16.57
2018-08-11T00:52:05.325Z,16.55
2018-08-11T00:53:05.312Z,16.51
2018-08-11T00:54:05.298Z,16.55
2018-08-11T00:55:05.438Z,16.55
2018-08-11T00:56:05.284Z,16.65
2018-08-11T00:57:05.266Z,16.63
2018-08-11T00:58:05.257Z,16.52
2018-08-11T00:59:05.243Z,16.55
2018-08-11T01:00:05.233Z,16.51
2018-08-11T01:01:05.220Z,16.47
2018-08-11T01:02:05.209Z,16.44
2018-08-11T01:03:05.199Z,16.41
2018-08-11T01:04:05.190Z,16.32
2018-08-11T01:05:05.178Z,16.40
2018-08-11T01:06:05.164Z,16.41
2018-08-11T01:07:05.253Z,16.44
2018-08-11T01:08:05.142Z,16.32
2018-08-11T01:09:05.132Z,16.30
2018-08-11T01:10:05.121Z,16.37
2018-08-11T01:11:05.109Z,16.36
2018-08-11T01:12:05.095Z,16.42
2018-08-11T01:13:05.084Z,16.34
2018-08-11T01:14:05.075Z,16.29
2018-08-11T01:15:05.062Z,16.16
2018-08-11T01:16:05.051Z,16.34
2018-08-11T01:17:05.037Z,16.30
2018-08-11T01:18:05.027Z,16.33
2018-08-11T01:19:05.016Z,16.32
2018-08-11T01:20:05.003Z,16.32
2018-08-11T01:21:04.993Z,16.26
2018-08-11T01:22:04.977Z,16.29
2018-08-11T01:23:04.965Z,16.30
2018-08-11T01:24:04.953Z,16.30
2018-08-11T01:25:04.943Z,16.16
2018-08-11T01:26:04.930Z,16.23
2018-08-11T01:27:04.919Z,16.13
2018-08-11T01:28:04.908Z,16.13
2018-08-11T01:29:04.897Z,16.11
2018-08-11T01:30:04.884Z,16.11
2018-08-11T01:31:04.873Z,16.13
2018-08-11T01:32:04.863Z,16.13
2018-08-11T01:33:04.850Z,15.96
2018-08-11T01:34:04.839Z,16.14
2018-08-11T01:35:04.828Z,16.03
2018-08-11T01:36:04.817Z,15.86
2018-08-11T01:37:04.803Z,15.89
2018-08-11T01:38:04.791Z,15.88
2018-08-11T01:39:04.779Z,15.89
2018-08-11T01:40:04.768Z,16.01
2018-08-11T01:41:04.756Z,15.88
2018-08-11T01:42:04.744Z,15.91
2018-08-11T01:43:04.732Z,15.89
2018-08-11T01:44:04.722Z,15.86
2018-08-11T01:45:04.710Z,15.86
2018-08-11T01:46:04.698Z,15.85
2018-08-11T01:47:04.685Z,15.89
2018-08-11T01:48:04.674Z,15.92
2018-08-11T01:49:04.763Z,15.88
2018-08-11T01:50:04.650Z,15.92
2018-08-11T01:51:04.639Z,15.89
2018-08-11T01:52:04.627Z,15.92
2018-08-11T01:53:04.617Z,15.89
2018-08-11T01:54:04.602Z,15.74
2018-08-11T01:55:04.591Z,15.73
2018-08-11T01:56:04.582Z,15.71
2018-08-11T01:57:04.568Z,15.77
2018-08-11T01:58:04.554Z,15.70
2018-08-11T01:59:04.544Z,15.73
2018-08-11T02:00:04.531Z,15.70
2018-08-11T02:01:04.670Z,15.70
2018-08-11T02:02:04.507Z,15.66
2018-08-11T02:03:04.495Z,15.53
2018-08-11T02:04:04.484Z,15.58
2018-08-11T02:05:04.472Z,15.44
2018-08-11T02:06:04.461Z,15.48
2018-08-11T02:07:04.447Z,15.58
2018-08-11T02:08:04.436Z,15.48
2018-08-11T02:09:04.424Z,15.43
2018-08-11T02:10:04.412Z,15.43
2018-08-11T02:11:04.399Z,15.49
2018-08-11T02:12:04.389Z,15.37
2018-08-11T02:13:04.378Z,15.46
2018-08-11T02:14:04.363Z,15.37
2018-08-11T02:15:04.353Z,15.43
2018-08-11T02:16:04.340Z,15.43
2018-08-11T02:17:04.328Z,15.48
2018-08-11T02:18:04.315Z,15.52
2018-08-11T02:19:04.303Z,15.38
2018-08-11T02:20:04.292Z,15.37
2018-08-11T02:21:04.280Z,15.23
2018-08-11T02:22:04.268Z,15.16
2018-08-11T02:23:04.258Z,15.23
2018-08-11T02:24:04.243Z,15.23
2018-08-11T02:25:04.431Z,15.27
2018-08-11T02:26:04.217Z,15.23
2018-08-11T02:27:04.208Z,15.35
2018-08-11T02:28:04.195Z,15.27
2018-08-11T02:29:04.184Z,15.23
2018-08-11T02:30:04.169Z,15.30
2018-08-11T02:31:04.257Z,15.28
2018-08-11T02:32:04.145Z,15.27
2018-08-11T02:33:04.133Z,15.34
2018-08-11T02:34:04.120Z,15.40
2018-08-11T02:35:04.111Z,15.43
2018-08-11T02:36:04.096Z,15.41
2018-08-11T02:37:04.084Z,15.34
2018-08-11T02:38:04.071Z,15.28
2018-08-11T02:39:04.058Z,15.37
2018-08-11T02:40:04.047Z,15.28
2018-08-11T02:41:04.036Z,15.23
2018-08-11T02:42:04.024Z,15.13
2018-08-11T02:43:04.011Z,15.09
2018-08-11T02:44:04.000Z,15.11
2018-08-11T02:45:03.986Z,15.07
2018-08-11T02:46:03.973Z,15.12
2018-08-11T02:47:03.962Z,15.18
2018-08-11T02:48:03.948Z,15.13
2018-08-11T02:49:03.936Z,15.18
2018-08-11T02:50:03.924Z,15.20
2018-08-11T02:51:03.911Z,15.23
2018-08-11T02:52:03.900Z,15.18
2018-08-11T02:53:03.887Z,15.16
2018-08-11T02:54:03.874Z,15.19
2018-08-11T02:55:04.012Z,15.11
2018-08-11T02:56:03.852Z,15.12
2018-08-11T02:57:03.838Z,15.12
2018-08-11T02:58:03.825Z,15.00
2018-08-11T02:59:03.813Z,15.07
2018-08-11T03:00:03.800Z,15.15
2018-08-11T03:01:03.939Z,15.05
2018-08-11T03:02:03.775Z,15.05
2018-08-11T03:03:03.763Z,15.13
2018-08-11T03:04:03.751Z,15.09
2018-08-11T03:05:03.739Z,15.04
2018-08-11T03:06:03.726Z,15.04
2018-08-11T03:07:03.713Z,15.01
2018-08-11T03:08:03.701Z,15.03
2018-08-11T03:09:03.691Z,15.03
2018-08-11T03:10:03.676Z,14.98
2018-08-11T03:11:03.667Z,15.00
2018-08-11T03:12:03.652Z,14.97
2018-08-11T03:13:03.639Z,14.82
2018-08-11T03:14:03.697Z,14.82
2018-08-11T03:15:03.616Z,14.86
2018-08-11T03:16:03.603Z,14.95
2018-08-11T03:17:03.589Z,14.86
2018-08-11T03:18:03.577Z,14.71
2018-08-11T03:19:03.567Z,14.85
2018-08-11T03:20:03.554Z,14.72
2018-08-11T03:21:03.539Z,14.72
2018-08-11T03:22:03.526Z,14.71
2018-08-11T03:23:03.514Z,14.66
2018-08-11T03:24:03.503Z,14.71
2018-08-11T03:25:03.492Z,14.60
2018-08-11T03:26:03.479Z,14.69
2018-08-11T03:27:03.467Z,14.61
2018-08-11T03:28:03.454Z,14.67
2018-08-11T03:29:03.444Z,14.64
2018-08-11T03:30:03.430Z,14.72
2018-08-11T03:31:03.566Z,14.86
2018-08-11T03:32:03.407Z,14.80
2018-08-11T03:33:03.393Z,14.83
2018-08-11T03:34:03.376Z,14.82
2018-08-11T03:35:03.365Z,14.75
2018-08-11T03:36:03.356Z,14.85
2018-08-11T03:37:03.341Z,14.87
2018-08-11T03:38:03.327Z,14.94
2018-08-11T03:39:03.314Z,14.79
2018-08-11T03:40:03.302Z,14.82
2018-08-11T03:41:03.292Z,14.93
2018-08-11T03:42:03.277Z,14.85
2018-08-11T03:43:03.264Z,14.80
2018-08-11T03:44:03.252Z,14.80
2018-08-11T03:45:03.241Z,14.69
2018-08-11T03:46:03.304Z,14.69
2018-08-11T03:47:03.215Z,14.74
2018-08-11T03:48:03.201Z,14.64
2018-08-11T03:49:03.188Z,14.59
2018-08-11T03:50:03.176Z,14.61
2018-08-11T03:51:03.161Z,14.48
2018-08-11T03:52:03.151Z,14.46
2018-08-11T03:53:03.138Z,14.56
2018-08-11T03:54:03.125Z,14.48
2018-08-11T03:55:03.262Z,14.52
2018-08-11T03:56:03.100Z,14.49
2018-08-11T03:57:03.087Z,14.46
2018-08-11T03:58:03.074Z,14.45
2018-08-11T03:59:03.061Z,14.45
2018-08-11T04:00:03.047Z,14.48
2018-08-11T04:01:03.135Z,14.48
2018-08-11T04:02:03.022Z,14.61
2018-08-11T04:03:03.009Z,14.67
2018-08-11T04:04:02.996Z,14.57
2018-08-11T04:05:02.984Z,14.57
2018-08-11T04:06:02.971Z,14.45
2018-08-11T04:07:03.060Z,14.49
2018-08-11T04:08:02.945Z,14.61
2018-08-11T04:09:02.932Z,14.53
2018-08-11T04:10:02.919Z,14.49
2018-08-11T04:11:02.907Z,14.42
2018-08-11T04:12:02.894Z,14.38
2018-08-11T04:13:02.886Z,14.38
2018-08-11T04:14:02.868Z,14.39
2018-08-11T04:15:02.855Z,14.34
2018-08-11T04:16:02.844Z,14.38
2018-08-11T04:17:02.828Z,14.36
2018-08-11T04:18:02.815Z,14.38
2018-08-11T04:19:02.803Z,14.38
2018-08-11T04:20:02.790Z,14.30
2018-08-11T04:21:02.777Z,14.31
2018-08-11T04:22:02.764Z,14.29
2018-08-11T04:23:02.752Z,14.21
2018-08-11T04:24:02.738Z,14.20
2018-08-11T04:25:02.753Z,14.19
2018-08-11T04:26:02.713Z,14.27
2018-08-11T04:27:02.698Z,14.27
2018-08-11T04:28:02.688Z,14.23
2018-08-11T04:29:02.674Z,14.30
2018-08-11T04:30:02.660Z,14.26
2018-08-11T04:31:02.746Z,14.23
2018-08-11T04:32:02.635Z,14.27
2018-08-11T04:33:02.630Z,14.30
2018-08-11T04:34:02.606Z,14.13
2018-08-11T04:35:02.595Z,14.17
2018-08-11T04:36:02.582Z,14.20
2018-08-11T04:37:02.673Z,14.17
2018-08-11T04:38:02.557Z,14.13
2018-08-11T04:39:02.542Z,14.09
2018-08-11T04:40:02.532Z,14.12
2018-08-11T04:41:02.519Z,14.11
2018-08-11T04:42:02.567Z,14.08
2018-08-11T04:43:02.492Z,13.96
2018-08-11T04:44:02.478Z,14.02
2018-08-11T04:45:02.466Z,14.04
2018-08-11T04:46:02.449Z,14.13
2018-08-11T04:47:02.439Z,14.05
2018-08-11T04:48:02.424Z,14.04
2018-08-11T04:49:02.563Z,14.01
2018-08-11T04:50:02.404Z,14.05
2018-08-11T04:51:02.385Z,14.11
2018-08-11T04:52:02.371Z,14.12
2018-08-11T04:53:02.358Z,14.06
2018-08-11T04:54:02.344Z,14.06
2018-08-11T04:55:02.475Z,13.98
2018-08-11T04:56:02.318Z,13.93
2018-08-11T04:57:02.306Z,13.93
2018-08-11T04:58:02.291Z,13.94
2018-08-11T04:59:02.278Z,13.91
2018-08-11T05:00:02.265Z,13.91
2018-08-11T05:01:02.352Z,13.91
2018-08-11T05:02:02.238Z,13.99
2018-08-11T05:03:02.224Z,13.94
2018-08-11T05:04:02.213Z,13.93
2018-08-11T05:05:02.199Z,13.93
2018-08-11T05:06:02.185Z,13.98
2018-08-11T05:07:02.274Z,13.91
2018-08-11T05:08:02.163Z,13.98
2018-08-11T05:09:02.145Z,13.90
2018-08-11T05:10:02.131Z,13.96
2018-08-11T05:11:02.118Z,13.91
2018-08-11T05:12:02.105Z,13.94
2018-08-11T05:13:02.091Z,13.84
2018-08-11T05:14:02.078Z,13.69
2018-08-11T05:15:02.065Z,13.83
2018-08-11T05:16:02.052Z,13.71
2018-08-11T05:17:02.038Z,13.73
2018-08-11T05:18:02.024Z,13.65
2018-08-11T05:19:02.011Z,13.68
2018-08-11T05:20:02.009Z,13.69
2018-08-11T05:21:01.983Z,13.71
2018-08-11T05:22:01.969Z,13.68
2018-08-11T05:23:01.957Z,13.73
2018-08-11T05:24:01.943Z,13.72
2018-08-11T05:25:02.031Z,13.73
2018-08-11T05:26:01.919Z,13.71
2018-08-11T05:27:01.908Z,13.69
2018-08-11T05:28:01.903Z,13.87
2018-08-11T05:29:01.876Z,13.75
2018-08-11T05:30:01.862Z,13.87
2018-08-11T05:31:01.849Z,13.87
2018-08-11T05:32:01.835Z,13.81
2018-08-11T05:33:01.883Z,13.73
2018-08-11T05:34:01.808Z,13.79
2018-08-11T05:35:01.795Z,13.73
2018-08-11T05:36:01.782Z,13.79
2018-08-11T05:37:01.768Z,13.66
2018-08-11T05:38:01.759Z,13.72
2018-08-11T05:39:01.741Z,13.71
2018-08-11T05:40:01.728Z,13.69
2018-08-11T05:41:01.715Z,13.69
2018-08-11T05:42:01.702Z,13.65
2018-08-11T05:43:01.690Z,13.51
2018-08-11T05:44:01.674Z,13.53
2018-08-11T05:45:01.660Z,13.59
2018-08-11T05:46:01.646Z,13.51
2018-08-11T05:47:01.633Z,13.53
2018-08-11T05:48:01.619Z,13.62
2018-08-11T05:49:01.757Z,13.48
2018-08-11T05:50:01.592Z,13.44
2018-08-11T05:51:01.585Z,13.53
2018-08-11T05:52:01.565Z,13.38
2018-08-11T05:53:01.552Z,13.43
2018-08-11T05:54:01.537Z,13.46
2018-08-11T05:55:01.666Z,13.44
2018-08-11T05:56:01.512Z,13.41
2018-08-11T05:57:01.498Z,13.39
2018-08-11T05:58:01.488Z,13.41
2018-08-11T05:59:01.469Z,13.39
2018-08-11T06:00:01.459Z,13.44
2018-08-11T06:01:01.440Z,13.44
2018-08-11T06:02:01.427Z,13.41
2018-08-11T06:03:01.413Z,13.32
2018-08-11T06:04:01.483Z,13.48
2018-08-11T06:05:01.386Z,13.41
2018-08-11T06:06:01.366Z,13.39
2018-08-11T06:07:01.498Z,13.38
2018-08-11T06:08:01.337Z,13.29
2018-08-11T06:09:01.320Z,13.27
2018-08-11T06:10:01.308Z,13.25
2018-08-11T06:11:01.296Z,13.29
2018-08-11T06:12:01.278Z,13.24
2018-08-11T06:13:01.266Z,13.28
2018-08-11T06:14:01.251Z,13.32
2018-08-11T06:15:01.237Z,13.27
2018-08-11T06:16:01.223Z,13.28
2018-08-11T06:17:01.209Z,13.22
2018-08-11T06:18:01.197Z,13.28
2018-08-11T06:19:01.282Z,13.27
2018-08-11T06:20:01.168Z,13.28
2018-08-11T06:21:01.208Z,13.24
2018-08-11T06:22:01.139Z,13.24
2018-08-11T06:23:01.126Z,13.21
2018-08-11T06:24:01.111Z,13.19
2018-08-11T06:25:01.102Z,13.29
2018-08-11T06:26:01.084Z,13.28
2018-08-11T06:27:01.069Z,13.28
2018-08-11T06:28:01.056Z,13.25
2018-08-11T06:29:01.045Z,13.31
2018-08-11T06:30:01.027Z,13.31
2018-08-11T06:31:01.164Z,13.25
2018-08-11T06:32:01.014Z,13.31
2018-08-11T06:33:00.988Z,13.24
2018-08-11T06:34:00.971Z,13.29
2018-08-11T06:35:00.957Z,13.25
2018-08-11T06:36:00.944Z,13.25
2018-08-11T06:37:00.930Z,13.27
2018-08-11T06:38:00.916Z,13.22
2018-08-11T06:39:00.902Z,13.19
2018-08-11T06:40:00.889Z,13.16
2018-08-11T06:41:01.083Z,13.29
2018-08-11T06:42:00.860Z,13.32
2018-08-11T06:43:00.846Z,13.21
2018-08-11T06:44:00.832Z,13.24
2018-08-11T06:45:00.817Z,13.22
2018-08-11T06:46:00.804Z,13.24
2018-08-11T06:47:00.846Z,13.24
2018-08-11T06:48:00.776Z,13.25
2018-08-11T06:49:00.762Z,13.25
2018-08-11T06:50:00.750Z,13.21
2018-08-11T06:51:00.735Z,13.21
2018-08-11T06:52:00.720Z,13.13
2018-08-11T06:53:00.707Z,13.16
2018-08-11T06:54:00.692Z,13.22
2018-08-11T06:55:00.778Z,13.16
2018-08-11T06:56:00.665Z,13.14
2018-08-11T06:57:00.651Z,13.10
2018-08-11T06:58:00.636Z,13.16
2018-08-11T06:59:00.623Z,13.25
2018-08-11T07:00:00.608Z,13.21
2018-08-11T07:01:00.596Z,13.16
2018-08-11T07:02:00.580Z,13.09
2018-08-11T07:03:00.565Z,13.07
2018-08-11T07:04:00.620Z,12.98
2018-08-11T07:05:00.539Z,13.01
2018-08-11T07:06:00.524Z,12.99
2018-08-11T07:07:00.604Z,12.95
2018-08-11T07:08:00.499Z,13.09
2018-08-11T07:09:00.482Z,13.03
2018-08-11T07:10:00.515Z,12.98
2018-08-11T07:11:00.455Z,12.98
2018-08-11T07:12:00.441Z,12.87
2018-08-11T07:13:00.427Z,12.87
2018-08-11T07:14:00.413Z,12.85
2018-08-11T07:15:00.397Z,12.81
2018-08-11T07:16:00.383Z,12.81
2018-08-11T07:17:00.370Z,12.81
2018-08-11T07:18:00.355Z,12.79
2018-08-11T07:19:00.342Z,12.81
2018-08-11T07:20:00.328Z,12.79
2018-08-11T07:21:00.313Z,12.85
2018-08-11T07:22:00.297Z,12.81
2018-08-11T07:23:00.285Z,12.71
2018-08-11T07:24:00.270Z,12.74
2018-08-11T07:25:00.408Z,12.67
2018-08-11T07:26:00.242Z,12.66
2018-08-11T07:27:00.228Z,12.66
2018-08-11T07:28:00.212Z,12.66
2018-08-11T07:29:00.200Z,12.76
2018-08-11T07:30:00.194Z,12.73
2018-08-11T07:31:00.369Z,12.81
2018-08-11T07:32:00.155Z,12.79
2018-08-11T07:33:00.142Z,12.79
2018-08-11T07:34:00.127Z,12.84
2018-08-11T07:35:00.113Z,12.71
2018-08-11T07:36:00.108Z,12.77
2018-08-11T07:37:00.184Z,12.74
2018-08-11T07:38:00.070Z,12.66
2018-08-11T07:39:00.056Z,12.63
2018-08-11T07:40:00.042Z,12.70
2018-08-11T07:41:00.028Z,12.63
2018-08-11T07:42:00.014Z,12.79
2018-08-11T07:43:00.000Z,12.80
2018-08-11T07:43:59.984Z,12.73
2018-08-11T07:44:59.975Z,12.73
2018-08-11T07:45:59.955Z,12.74
2018-08-11T07:46:59.952Z,12.70
2018-08-11T07:47:59.928Z,12.73
2018-08-11T07:49:00.013Z,12.70
2018-08-11T07:49:59.898Z,12.51
2018-08-11T07:50:59.885Z,12.62
2018-08-11T07:51:59.869Z,12.58
2018-08-11T07:52:59.855Z,12.52
2018-08-11T07:53:59.843Z,12.54
2018-08-11T07:54:59.826Z,12.54
2018-08-11T07:55:59.836Z,12.51
2018-08-11T07:56:59.797Z,12.40
2018-08-11T07:57:59.784Z,12.46
2018-08-11T07:58:59.769Z,12.49
2018-08-11T07:59:59.754Z,12.51
2018-08-11T08:00:59.740Z,12.37
2018-08-11T08:01:59.725Z,12.48
2018-08-11T08:02:59.712Z,12.44
2018-08-11T08:03:59.696Z,12.48
2018-08-11T08:04:59.682Z,12.46
2018-08-11T08:05:59.667Z,12.44
2018-08-11T08:06:59.853Z,12.48
2018-08-11T08:07:59.688Z,12.43
2018-08-11T08:08:59.626Z,12.52
2018-08-11T08:09:59.608Z,12.52
2018-08-11T08:10:59.593Z,12.49
2018-08-11T08:11:59.579Z,12.41
2018-08-11T08:12:59.566Z,12.38
2018-08-11T08:13:59.550Z,12.44
2018-08-11T08:14:59.534Z,12.46
2018-08-11T08:15:59.525Z,12.46
2018-08-11T08:16:59.507Z,12.40
2018-08-11T08:17:59.491Z,12.43
2018-08-11T08:18:59.476Z,12.44
2018-08-11T08:19:59.465Z,12.48
2018-08-11T08:20:59.448Z,12.55
2018-08-11T08:21:59.433Z,12.54
2018-08-11T08:22:59.417Z,12.51
2018-08-11T08:23:59.405Z,12.63
2018-08-11T08:24:59.392Z,12.55
2018-08-11T08:25:59.380Z,12.52
2018-08-11T08:26:59.493Z,12.62
2018-08-11T08:27:59.346Z,12.55
2018-08-11T08:28:59.331Z,12.49
2018-08-11T08:29:59.317Z,12.46
2018-08-11T08:30:59.402Z,12.41
2018-08-11T08:31:59.290Z,12.31
2018-08-11T08:32:59.273Z,12.38
2018-08-11T08:33:59.319Z,12.38
2018-08-11T08:34:59.242Z,12.26
2018-08-11T08:35:59.230Z,12.41
2018-08-11T08:36:59.317Z,12.33
2018-08-11T08:37:59.199Z,12.38
2018-08-11T08:38:59.185Z,12.34
2018-08-11T08:39:59.172Z,12.29
2018-08-11T08:40:59.156Z,12.19
2018-08-11T08:41:59.245Z,12.31
2018-08-11T08:42:59.226Z,12.40
2018-08-11T08:43:59.112Z,12.38
2018-08-11T08:44:59.098Z,12.40
2018-08-11T08:45:59.082Z,12.40
2018-08-11T08:46:59.068Z,12.44
2018-08-11T08:47:59.053Z,12.46
2018-08-11T08:48:59.038Z,12.40
2018-08-11T08:49:59.023Z,12.34
2018-08-11T08:50:59.010Z,12.30
2018-08-11T08:51:58.994Z,12.37
2018-08-11T08:52:58.981Z,12.40
2018-08-11T08:53:58.965Z,12.40
2018-08-11T08:54:59.050Z,12.40
2018-08-11T08:55:58.937Z,12.41
2018-08-11T08:56:58.922Z,12.46
2018-08-11T08:57:58.909Z,12.52
2018-08-11T08:58:58.898Z,12.46
2018-08-11T08:59:58.878Z,12.49
2018-08-11T09:00:58.864Z,12.52
2018-08-11T09:01:58.848Z,12.59
2018-08-11T09:02:58.834Z,12.48
2018-08-11T09:03:58.819Z,12.55
2018-08-11T09:04:58.911Z,12.61
2018-08-11T09:05:58.790Z,12.49
2018-08-11T09:06:58.875Z,12.62
2018-08-11T09:07:58.762Z,12.59
2018-08-11T09:08:58.747Z,12.54
2018-08-11T09:09:58.732Z,12.58
2018-08-11T09:10:58.719Z,12.48
2018-08-11T09:11:58.749Z,12.55
2018-08-11T09:12:58.689Z,12.46
2018-08-11T09:13:58.674Z,12.46
2018-08-11T09:14:58.660Z,12.43
2018-08-11T09:15:58.648Z,12.49
2018-08-11T09:16:58.632Z,12.54
2018-08-11T09:17:58.616Z,12.46
2018-08-11T09:18:58.709Z,12.51
2018-08-11T09:19:58.588Z,12.49
2018-08-11T09:20:58.574Z,12.44
2018-08-11T09:21:58.558Z,12.41
2018-08-11T09:22:58.543Z,12.40
2018-08-11T09:23:58.529Z,12.51
2018-08-11T09:24:58.666Z,12.59
2018-08-11T09:25:58.501Z,12.52
2018-08-11T09:26:58.487Z,12.49
2018-08-11T09:27:58.473Z,12.54
2018-08-11T09:28:58.459Z,12.52
2018-08-11T09:29:58.444Z,12.51
2018-08-11T09:30:58.430Z,12.43
2018-08-11T09:31:58.415Z,12.43
2018-08-11T09:32:58.401Z,12.48
2018-08-11T09:33:58.384Z,12.41
2018-08-11T09:34:58.371Z,12.38
2018-08-11T09:35:58.357Z,12.38
2018-08-11T09:36:58.442Z,12.26
2018-08-11T09:37:58.327Z,12.33
2018-08-11T09:38:58.316Z,12.21
2018-08-11T09:39:58.298Z,12.19
2018-08-11T09:40:58.285Z,12.12
2018-08-11T09:41:58.269Z,12.05
2018-08-11T09:42:58.355Z,12.18
2018-08-11T09:43:58.240Z,12.16
2018-08-11T09:44:58.226Z,12.18
2018-08-11T09:45:58.265Z,12.12
2018-08-11T09:46:58.195Z,11.98
2018-08-11T09:47:58.182Z,12.03
2018-08-11T09:48:58.268Z,11.98
2018-08-11T09:49:58.151Z,12.03
2018-08-11T09:50:58.140Z,11.98
2018-08-11T09:51:58.122Z,11.98
2018-08-11T09:52:58.113Z,12.11
2018-08-11T09:53:58.092Z,12.01
2018-08-11T09:54:58.077Z,12.03
2018-08-11T09:55:58.063Z,12.03
2018-08-11T09:56:58.048Z,12.01
2018-08-11T09:57:58.032Z,12.03
2018-08-11T09:58:58.021Z,12.11
2018-08-11T09:59:58.003Z,12.12
2018-08-11T10:00:58.139Z,12.11
2018-08-11T10:01:57.973Z,12.15
2018-08-11T10:02:57.957Z,12.16
2018-08-11T10:03:57.942Z,12.21
2018-08-11T10:04:57.970Z,12.16
2018-08-11T10:05:57.913Z,12.05
2018-08-11T10:06:57.999Z,12.15
2018-08-11T10:07:57.883Z,12.15
2018-08-11T10:08:57.871Z,12.18
2018-08-11T10:09:57.855Z,12.18
2018-08-11T10:10:57.840Z,12.19
2018-08-11T10:11:57.826Z,12.21
2018-08-11T10:12:57.811Z,12.33
2018-08-11T10:13:57.794Z,12.36
2018-08-11T10:14:57.781Z,12.40
2018-08-11T10:15:57.766Z,12.36
2018-08-11T10:16:57.751Z,12.38
2018-08-11T10:17:57.735Z,12.38
2018-08-11T10:18:57.722Z,12.38
2018-08-11T10:19:57.707Z,12.40
2018-08-11T10:20:57.693Z,12.41
2018-08-11T10:21:57.676Z,12.40
2018-08-11T10:22:57.663Z,12.43
2018-08-11T10:23:57.648Z,12.41
2018-08-11T10:24:57.733Z,12.38
2018-08-11T10:25:57.619Z,12.40
2018-08-11T10:26:57.604Z,12.38
2018-08-11T10:27:57.589Z,12.37
2018-08-11T10:28:57.575Z,12.34
2018-08-11T10:29:57.559Z,12.44
2018-08-11T10:30:57.547Z,12.34
2018-08-11T10:31:57.533Z,12.38
2018-08-11T10:32:57.517Z,12.36
2018-08-11T10:33:57.501Z,12.41
2018-08-11T10:34:57.488Z,12.48
2018-08-11T10:35:57.476Z,12.52
2018-08-11T10:36:57.460Z,12.56
2018-08-11T10:37:57.447Z,12.48
2018-08-11T10:38:57.429Z,12.52
2018-08-11T10:39:57.477Z,12.52
2018-08-11T10:40:57.403Z,12.48
2018-08-11T10:41:57.389Z,12.44
2018-08-11T10:42:57.372Z,12.52
2018-08-11T10:43:57.358Z,12.56
2018-08-11T10:44:57.346Z,12.62
2018-08-11T10:45:57.329Z,12.59
2018-08-11T10:46:57.359Z,12.56
2018-08-11T10:47:57.300Z,12.54
2018-08-11T10:48:57.287Z,12.58
2018-08-11T10:49:57.270Z,12.63
2018-08-11T10:50:57.260Z,12.70
2018-08-11T10:51:57.245Z,12.63
2018-08-11T10:52:57.227Z,12.63
2018-08-11T10:53:57.213Z,12.66
2018-08-11T10:54:57.300Z,12.59
2018-08-11T10:55:57.197Z,12.71
2018-08-11T10:56:57.169Z,12.76
2018-08-11T10:57:57.154Z,12.62
2018-08-11T10:58:57.141Z,12.59
2018-08-11T10:59:57.128Z,12.70
2018-08-11T11:00:57.114Z,12.71
2018-08-11T11:01:57.097Z,12.77
2018-08-11T11:02:57.083Z,12.69
2018-08-11T11:03:57.069Z,12.69
2018-08-11T11:04:57.055Z,12.63
2018-08-11T11:05:57.044Z,12.66
2018-08-11T11:06:57.029Z,12.66
2018-08-11T11:07:57.012Z,12.63
2018-08-11T11:08:56.997Z,12.73
2018-08-11T11:09:56.983Z,12.74
2018-08-11T11:10:56.968Z,12.70
2018-08-11T11:11:56.955Z,12.73
2018-08-11T11:12:56.941Z,12.66
2018-08-11T11:13:56.927Z,12.70
2018-08-11T11:14:56.912Z,12.77
2018-08-11T11:15:56.901Z,12.81
2018-08-11T11:16:56.883Z,12.87
2018-08-11T11:17:56.869Z,12.85
2018-08-11T11:18:56.853Z,12.81
2018-08-11T11:19:56.844Z,12.91
2018-08-11T11:20:56.854Z,12.95
2018-08-11T11:21:56.810Z,12.96
2018-08-11T11:22:56.797Z,12.92
2018-08-11T11:23:56.784Z,12.94
2018-08-11T11:24:56.869Z,12.95
2018-08-11T11:25:56.756Z,12.96
2018-08-11T11:26:56.739Z,13.01
2018-08-11T11:27:56.728Z,13.10
2018-08-11T11:28:56.713Z,13.24
2018-08-11T11:29:56.697Z,13.24
2018-08-11T11:30:56.682Z,13.27
2018-08-11T11:31:56.669Z,13.32
2018-08-11T11:32:56.655Z,13.29
2018-08-11T11:33:56.640Z,13.31
2018-08-11T11:34:56.625Z,13.29
2018-08-11T11:35:56.611Z,13.31
2018-08-11T11:36:56.598Z,13.41
2018-08-11T11:37:56.584Z,13.44
2018-08-11T11:38:56.570Z,13.48
2018-08-11T11:39:56.557Z,13.63
2018-08-11T11:40:56.542Z,13.57
2018-08-11T11:41:56.528Z,13.59
2018-08-11T11:42:56.514Z,13.65
2018-08-11T11:43:56.501Z,13.79
2018-08-11T11:44:56.489Z,13.86
2018-08-11T11:45:56.473Z,13.98
2018-08-11T11:46:56.461Z,14.16
2018-08-11T11:47:56.446Z,14.44
2018-08-11T11:48:56.433Z,14.54
2018-08-11T11:49:56.420Z,14.64
2018-08-11T11:50:56.408Z,14.83
2018-08-11T11:51:56.393Z,14.98
2018-08-11T11:52:56.384Z,15.01
2018-08-11T11:53:56.366Z,15.03
2018-08-11T11:54:56.354Z,15.12
2018-08-11T11:55:56.341Z,15.05
2018-08-11T11:56:56.329Z,15.18
2018-08-11T11:57:56.318Z,15.30
2018-08-11T11:58:56.307Z,15.46
2018-08-11T11:59:56.349Z,15.59
2018-08-11T12:00:56.282Z,15.46
2018-08-11T12:01:56.315Z,15.81
2018-08-11T12:02:56.254Z,16.04
2018-08-11T12:03:56.243Z,16.11
2018-08-11T12:04:56.229Z,16.06
2018-08-11T12:05:56.272Z,16.08
2018-08-11T12:06:56.208Z,16.03
2018-08-11T12:07:56.193Z,16.07
2018-08-11T12:08:56.183Z,16.17
2018-08-11T12:09:56.174Z,16.36
2018-08-11T12:10:56.159Z,16.40
2018-08-11T12:11:56.147Z,16.32
2018-08-11T12:12:56.236Z,16.25
2018-08-11T12:13:56.123Z,16.40
2018-08-11T12:14:56.114Z,16.36
2018-08-11T12:15:56.101Z,16.52
2018-08-11T12:16:56.091Z,16.48
2018-08-11T12:17:56.076Z,16.50
2018-08-11T12:18:56.072Z,16.37
2018-08-11T12:19:56.056Z,16.54
2018-08-11T12:20:56.043Z,16.73
2018-08-11T12:21:56.032Z,16.66
2018-08-11T12:22:56.019Z,16.72
2018-08-11T12:23:56.008Z,16.73
2018-08-11T12:24:56.202Z,16.90
2018-08-11T12:25:55.986Z,17.12
2018-08-11T12:26:55.974Z,17.00
2018-08-11T12:27:55.963Z,17.17
2018-08-11T12:28:55.953Z,17.12
2018-08-11T12:29:55.942Z,17.07
2018-08-11T12:30:56.032Z,17.17
2018-08-11T12:31:55.921Z,17.36
2018-08-11T12:32:55.912Z,17.47
2018-08-11T12:33:55.900Z,17.33
2018-08-11T12:34:55.888Z,16.85
2018-08-11T12:35:55.877Z,16.75
2018-08-11T12:36:55.967Z,16.57
2018-08-11T12:37:55.870Z,16.63
2018-08-11T12:38:55.844Z,16.73
2018-08-11T12:39:55.833Z,16.82
2018-08-11T12:40:55.823Z,17.24
2018-08-11T12:41:55.815Z,17.47
2018-08-11T12:42:55.901Z,17.58
2018-08-11T12:43:55.789Z,17.77
2018-08-11T12:44:55.781Z,17.57
2018-08-11T12:45:55.858Z,17.83
2018-08-11T12:46:55.757Z,17.84
2018-08-11T12:47:55.747Z,18.13
2018-08-11T12:48:55.843Z,18.02
2018-08-11T12:49:55.727Z,17.98
2018-08-11T12:50:55.718Z,18.09
2018-08-11T12:51:55.714Z,18.25